createdAt,value
2018-12-25T00:00:03.668Z,1.4
2018-12-25T00:01:03.429Z,1.4
2018-12-25T00:02:03.577Z,1.4
2018-12-25T00:03:02.839Z,1.3
2018-12-25T00:04:03.086Z,1.3
2018-12-25T00:05:02.915Z,1.3
2018-12-25T00:06:03.373Z,1.3
2018-12-25T00:07:03.532Z,1.3
2018-12-25T00:08:03.205Z,1.3
2018-12-25T00:09:03.276Z,1.2
2018-12-25T00:10:03.170Z,1.2
2018-12-25T00:11:03.086Z,1.3
2018-12-25T00:12:03.023Z,1.3
2018-12-25T00:13:03.300Z,1.2
2018-12-25T00:14:03.581Z,1.3
2018-12-25T00:15:03.690Z,1.3
2018-12-25T00:16:07.462Z,1.2
2018-12-25T00:17:03.113Z,1.2
2018-12-25T00:18:03.549Z,1.2
2018-12-25T00:19:06.623Z,1.2
2018-12-25T00:20:03.373Z,1.2
2018-12-25T00:22:03.259Z,1.2
2018-12-25T00:23:03.704Z,1.2
2018-12-25T00:24:04.038Z,1.2
2018-12-25T00:25:03.756Z,1.2
2018-12-25T00:26:03.220Z,1.2
2018-12-25T00:27:03.086Z,1.2
2018-12-25T00:28:03.098Z,1.2
2018-12-25T00:29:02.968Z,1.3
2018-12-25T00:30:02.954Z,1.3
2018-12-25T00:31:03.086Z,1.3
2018-12-25T00:32:02.937Z,1.3
2018-12-25T00:33:02.822Z,1.3
2018-12-25T00:34:03.158Z,1.3
2018-12-25T00:35:03.837Z,1.3
2018-12-25T00:36:03.320Z,1.3
2018-12-25T00:37:03.115Z,1.4
2018-12-25T00:38:03.087Z,1.4
2018-12-25T00:39:03.487Z,1.4
2018-12-25T00:40:03.923Z,1.4
2018-12-25T00:41:03.549Z,1.4
2018-12-25T00:42:02.700Z,1.4
2018-12-25T00:43:02.800Z,1.4
2018-12-25T00:44:03.227Z,1.4
2018-12-25T00:45:03.471Z,1.4
2018-12-25T00:46:03.829Z,1.4
2018-12-25T00:47:03.550Z,1.4
2018-12-25T00:48:02.936Z,1.4
2018-12-25T00:49:02.790Z,1.4
2018-12-25T00:50:03.721Z,1.4
2018-12-25T00:51:03.170Z,1.4
2018-12-25T00:52:03.319Z,1.4
2018-12-25T00:53:03.542Z,1.4
2018-12-25T00:54:03.534Z,1.4
2018-12-25T00:55:03.294Z,1.4
2018-12-25T00:56:03.329Z,1.4
2018-12-25T00:57:03.450Z,1.4
2018-12-25T00:58:02.910Z,1.4
2018-12-25T00:59:03.724Z,1.4
2018-12-25T01:00:03.218Z,1.4
2018-12-25T01:01:03.381Z,1.4
2018-12-25T01:02:03.628Z,1.4
2018-12-25T01:03:02.656Z,1.4
2018-12-25T01:04:03.504Z,1.4
2018-12-25T01:05:03.376Z,1.4
2018-12-25T01:06:02.975Z,1.4
2018-12-25T01:07:04.577Z,1.4
2018-12-25T01:08:03.110Z,1.4
2018-12-25T01:09:02.802Z,1.4
2018-12-25T01:10:03.707Z,1.4
2018-12-25T01:11:03.456Z,1.4
2018-12-25T01:12:03.240Z,1.4
2018-12-25T01:13:03.241Z,1.4
2018-12-25T01:14:03.691Z,1.4
2018-12-25T01:15:02.975Z,1.4
2018-12-25T01:16:03.860Z,1.4
2018-12-25T01:17:03.069Z,1.4
2018-12-25T01:18:03.688Z,1.4
2018-12-25T01:19:03.464Z,1.3
2018-12-25T01:20:03.470Z,1.3
2018-12-25T01:21:02.990Z,1.3
2018-12-25T01:22:03.418Z,1.3
2018-12-25T01:23:03.300Z,1.3
2018-12-25T01:24:03.710Z,1.3
2018-12-25T01:25:03.152Z,1.2
2018-12-25T01:26:03.090Z,1.2
2018-12-25T01:27:03.046Z,1.2
2018-12-25T01:28:03.475Z,1.2
2018-12-25T01:29:03.077Z,1.2
2018-12-25T01:30:03.664Z,1.2
2018-12-25T01:31:02.941Z,1.1
2018-12-25T01:32:03.243Z,1.1
2018-12-25T01:33:03.474Z,1.1
2018-12-25T01:34:03.401Z,1.1
2018-12-25T01:35:03.334Z,1.1
2018-12-25T01:36:03.223Z,1.1
2018-12-25T01:37:02.812Z,1.1
2018-12-25T01:38:04.034Z,1.1
2018-12-25T01:39:02.780Z,1.1
2018-12-25T01:40:03.642Z,1.1
2018-12-25T01:41:03.233Z,1
2018-12-25T01:42:03.740Z,1
2018-12-25T01:43:03.183Z,1
2018-12-25T01:44:03.532Z,1
2018-12-25T01:45:03.338Z,1
2018-12-25T01:46:03.857Z,0.9
2018-12-25T01:47:02.992Z,0.9
2018-12-25T01:48:03.681Z,0.9
2018-12-25T01:49:03.337Z,0.9
2018-12-25T01:50:03.464Z,0.9
2018-12-25T01:51:03.040Z,0.8
2018-12-25T01:52:03.533Z,0.8
2018-12-25T01:53:03.241Z,0.8
2018-12-25T01:54:03.513Z,0.8
2018-12-25T01:55:04.194Z,0.8
2018-12-25T01:56:03.368Z,0.8
2018-12-25T01:57:02.809Z,0.8
2018-12-25T01:58:03.637Z,0.8
2018-12-25T01:59:02.816Z,0.7
2018-12-25T02:00:03.264Z,0.7
2018-12-25T02:01:03.010Z,0.7
2018-12-25T02:02:03.569Z,0.7
2018-12-25T02:03:03.699Z,0.8
2018-12-25T02:04:03.643Z,0.7
2018-12-25T02:05:03.798Z,0.7
2018-12-25T02:06:03.747Z,0.7
2018-12-25T02:07:03.023Z,0.7
2018-12-25T02:08:03.458Z,0.6
2018-12-25T02:09:03.603Z,0.6
2018-12-25T02:10:03.851Z,0.6
2018-12-25T02:11:03.170Z,0.6
2018-12-25T02:12:03.245Z,0.6
2018-12-25T02:13:02.968Z,0.6
2018-12-25T02:14:03.402Z,0.5
2018-12-25T02:15:03.497Z,0.5
2018-12-25T02:16:03.229Z,0.5
2018-12-25T02:17:03.168Z,0.5
2018-12-25T02:18:03.032Z,0.5
2018-12-25T02:19:02.969Z,0.5
2018-12-25T02:20:03.099Z,0.5
2018-12-25T02:21:03.295Z,0.4
2018-12-25T02:22:03.573Z,0.4
2018-12-25T02:23:03.474Z,0.4
2018-12-25T02:24:02.988Z,0.4
2018-12-25T02:25:03.181Z,0.4
2018-12-25T02:26:03.410Z,0.4
2018-12-25T02:27:03.679Z,0.4
2018-12-25T02:28:02.950Z,0.4
2018-12-25T02:29:02.726Z,0.4
2018-12-25T02:30:03.098Z,0.4
2018-12-25T02:31:03.154Z,0.4
2018-12-25T02:32:03.566Z,0.4
2018-12-25T02:33:03.171Z,0.4
2018-12-25T02:34:03.404Z,0.4
2018-12-25T02:35:03.786Z,0.4
2018-12-25T02:36:03.541Z,0.4
2018-12-25T02:37:03.092Z,0.4
2018-12-25T02:38:03.599Z,0.4
2018-12-25T02:39:03.366Z,0.4
2018-12-25T02:40:02.865Z,0.4
2018-12-25T02:41:03.143Z,0.4
2018-12-25T02:42:03.103Z,0.4
2018-12-25T02:43:03.199Z,0.4
2018-12-25T02:44:03.525Z,0.4
2018-12-25T02:45:03.704Z,0.4
2018-12-25T02:46:03.379Z,0.4
2018-12-25T02:47:03.271Z,0.4
2018-12-25T02:48:03.239Z,0.4
2018-12-25T02:49:02.843Z,0.4
2018-12-25T02:50:03.806Z,0.4
2018-12-25T02:51:03.764Z,0.4
2018-12-25T02:52:03.791Z,0.4
2018-12-25T02:53:03.861Z,0.4
2018-12-25T02:54:03.501Z,0.4
2018-12-25T02:55:03.102Z,0.4
2018-12-25T02:56:03.249Z,0.4
2018-12-25T02:57:03.288Z,0.4
2018-12-25T02:58:03.015Z,0.4
2018-12-25T02:59:02.930Z,0.4
2018-12-25T03:00:03.628Z,0.4
2018-12-25T03:01:03.935Z,0.4
2018-12-25T03:02:03.077Z,0.4
2018-12-25T03:03:03.762Z,0.4
2018-12-25T03:04:03.027Z,0.4
2018-12-25T03:05:03.149Z,0.4
2018-12-25T03:06:03.747Z,0.4
2018-12-25T03:07:03.384Z,0.3
2018-12-25T03:08:03.424Z,0.3
2018-12-25T03:09:03.181Z,0.3
2018-12-25T03:10:03.542Z,0.4
2018-12-25T03:11:03.378Z,0.3
2018-12-25T03:12:03.036Z,0.3
2018-12-25T03:13:03.828Z,0.3
2018-12-25T03:14:03.386Z,0.3
2018-12-25T03:15:03.278Z,0.3
2018-12-25T03:16:03.900Z,0.4
2018-12-25T03:17:02.887Z,0.4
2018-12-25T03:18:03.333Z,0.4
2018-12-25T03:19:03.281Z,0.4
2018-12-25T03:20:03.149Z,0.4
2018-12-25T03:21:03.052Z,0.4
2018-12-25T03:22:04.526Z,0.4
2018-12-25T03:23:03.322Z,0.4
2018-12-25T03:24:02.721Z,0.4
2018-12-25T03:25:02.867Z,0.3
2018-12-25T03:26:03.178Z,0.4
2018-12-25T03:27:03.339Z,0.3
2018-12-25T03:28:02.773Z,0.3
2018-12-25T03:29:03.175Z,0.3
2018-12-25T03:30:03.740Z,0.3
2018-12-25T03:31:03.677Z,0.3
2018-12-25T03:32:03.261Z,0.3
2018-12-25T03:33:02.826Z,0.3
2018-12-25T03:34:03.450Z,0.3
2018-12-25T03:35:03.688Z,0.3
2018-12-25T03:36:03.182Z,0.3
2018-12-25T03:37:03.096Z,0.4
2018-12-25T03:38:03.137Z,0.4
2018-12-25T03:39:03.171Z,0.3
2018-12-25T03:40:03.089Z,0.4
2018-12-25T03:41:03.455Z,0.3
2018-12-25T03:42:03.402Z,0.3
2018-12-25T03:43:03.237Z,0.3
2018-12-25T03:44:03.529Z,0.3
2018-12-25T03:45:03.203Z,0.3
2018-12-25T03:46:03.361Z,0.3
2018-12-25T03:47:03.159Z,0.3
2018-12-25T03:48:03.121Z,0.3
2018-12-25T03:49:03.284Z,0.3
2018-12-25T03:50:11.322Z,0.3
2018-12-25T03:51:02.948Z,0.3
2018-12-25T03:52:03.329Z,0.3
2018-12-25T03:53:03.407Z,0.2
2018-12-25T03:54:03.068Z,0.3
2018-12-25T03:55:03.075Z,0.2
2018-12-25T03:56:03.400Z,0.2
2018-12-25T03:58:03.136Z,0.3
2018-12-25T03:59:03.110Z,0.3
2018-12-25T04:00:03.505Z,0.3
2018-12-25T04:01:03.330Z,0.3
2018-12-25T04:02:03.763Z,0.3
2018-12-25T04:03:03.390Z,0.2
2018-12-25T04:04:03.322Z,0.2
2018-12-25T04:05:03.400Z,0.2
2018-12-25T04:06:03.831Z,0.2
2018-12-25T04:07:03.664Z,0.2
2018-12-25T04:08:03.103Z,0.2
2018-12-25T04:09:03.216Z,0.3
2018-12-25T04:10:03.776Z,0.2
2018-12-25T04:11:03.617Z,0.3
2018-12-25T04:12:02.867Z,0.3
2018-12-25T04:13:03.166Z,0.2
2018-12-25T04:14:03.063Z,0.2
2018-12-25T04:15:03.259Z,0.2
2018-12-25T04:16:03.968Z,0.3
2018-12-25T04:17:03.392Z,0.2
2018-12-25T04:18:03.390Z,0.2
2018-12-25T04:19:03.191Z,0.2
2018-12-25T04:20:03.645Z,0.2
2018-12-25T04:21:03.721Z,0.2
2018-12-25T04:22:03.357Z,0.2
2018-12-25T04:23:03.417Z,0.2
2018-12-25T04:24:03.762Z,0.2
2018-12-25T04:25:03.107Z,0.2
2018-12-25T04:26:03.417Z,0.2
2018-12-25T04:27:03.217Z,0.1
2018-12-25T04:28:02.880Z,0.1
2018-12-25T04:29:02.975Z,0.1
2018-12-25T04:30:03.944Z,0.1
2018-12-25T04:31:03.592Z,0.1
2018-12-25T04:32:03.146Z,0.1
2018-12-25T04:33:03.549Z,0.1
2018-12-25T04:34:03.622Z,0.1
2018-12-25T04:35:02.694Z,0.1
2018-12-25T04:36:03.835Z,0.1
2018-12-25T04:37:03.313Z,0.1
2018-12-25T04:38:03.279Z,0.1
2018-12-25T04:39:03.357Z,0.2
2018-12-25T04:40:03.554Z,0.2
2018-12-25T04:41:03.221Z,0.2
2018-12-25T04:42:03.602Z,0.1
2018-12-25T04:43:02.870Z,0.1
2018-12-25T04:44:03.431Z,0.2
2018-12-25T04:45:03.431Z,0.2
2018-12-25T04:46:04.318Z,0.2
2018-12-25T04:47:03.540Z,0.2
2018-12-25T04:48:03.249Z,0.2
2018-12-25T04:49:03.559Z,0.1
2018-12-25T04:50:03.488Z,0.2
2018-12-25T04:51:03.470Z,0.2
2018-12-25T04:52:03.417Z,0.2
2018-12-25T04:53:03.143Z,0.2
2018-12-25T04:54:03.478Z,0.2
2018-12-25T04:55:03.937Z,0.2
2018-12-25T04:56:03.728Z,0.2
2018-12-25T04:57:03.183Z,0.2
2018-12-25T04:58:03.403Z,0.2
2018-12-25T04:59:02.870Z,0.2
2018-12-25T05:00:03.438Z,0.3
2018-12-25T05:02:03.750Z,0.2
2018-12-25T05:03:03.742Z,0.3
2018-12-25T05:04:02.817Z,0.3
2018-12-25T05:05:03.108Z,0.3
2018-12-25T05:06:02.859Z,0.2
2018-12-25T05:07:03.290Z,0.2
2018-12-25T05:08:03.274Z,0.2
2018-12-25T05:09:03.249Z,0.2
2018-12-25T05:10:03.806Z,0.2
2018-12-25T05:11:02.861Z,0.2
2018-12-25T05:12:03.423Z,0.3
2018-12-25T05:13:03.468Z,0.3
2018-12-25T05:14:03.186Z,0.3
2018-12-25T05:15:03.206Z,0.3
2018-12-25T05:16:04.484Z,0.3
2018-12-25T05:17:03.782Z,0.3
2018-12-25T05:18:03.099Z,0.3
2018-12-25T05:19:03.746Z,0.3
2018-12-25T05:20:03.070Z,0.2
2018-12-25T05:21:03.624Z,0.3
2018-12-25T05:22:03.289Z,0.3
2018-12-25T05:23:03.747Z,0.3
2018-12-25T05:24:03.013Z,0.3
2018-12-25T05:25:03.437Z,0.3
2018-12-25T05:26:03.033Z,0.2
2018-12-25T05:27:03.008Z,0.3
2018-12-25T05:28:03.323Z,0.3
2018-12-25T05:29:03.009Z,0.3
2018-12-25T05:30:03.423Z,0.3
2018-12-25T05:31:03.712Z,0.3
2018-12-25T05:32:03.728Z,0.3
2018-12-25T05:33:03.252Z,0.3
2018-12-25T05:34:03.520Z,0.3
2018-12-25T05:35:03.590Z,0.3
2018-12-25T05:36:03.170Z,0.3
2018-12-25T05:37:03.504Z,0.3
2018-12-25T05:38:03.030Z,0.3
2018-12-25T05:39:03.832Z,0.3
2018-12-25T05:40:03.448Z,0.3
2018-12-25T05:41:03.068Z,0.3
2018-12-25T05:42:03.738Z,0.3
2018-12-25T05:43:02.941Z,0.3
2018-12-25T05:44:02.785Z,0.3
2018-12-25T05:45:03.350Z,0.2
2018-12-25T05:46:03.160Z,0.3
2018-12-25T05:47:03.043Z,0.3
2018-12-25T05:48:03.207Z,0.2
2018-12-25T05:49:03.638Z,0.2
2018-12-25T05:50:03.671Z,0.3
2018-12-25T05:51:03.195Z,0.2
2018-12-25T05:52:03.122Z,0.2
2018-12-25T05:53:02.849Z,0.2
2018-12-25T05:54:03.625Z,0.2
2018-12-25T05:55:02.832Z,0.2
2018-12-25T05:56:03.141Z,0.2
2018-12-25T05:57:03.512Z,0.1
2018-12-25T05:58:03.573Z,0.1
2018-12-25T05:59:03.230Z,0.1
2018-12-25T06:00:04.026Z,0.1
2018-12-25T06:01:03.074Z,0.1
2018-12-25T06:02:03.786Z,0.1
2018-12-25T06:03:03.135Z,0.1
2018-12-25T06:04:03.320Z,0.1
2018-12-25T06:05:03.436Z,0.1
2018-12-25T06:06:03.133Z,0.1
2018-12-25T06:07:03.483Z,0.2
2018-12-25T06:08:03.282Z,0.1
2018-12-25T06:09:03.577Z,0.1
2018-12-25T06:10:03.315Z,0.1
2018-12-25T06:11:02.912Z,0.1
2018-12-25T06:12:03.504Z,0.1
2018-12-25T06:13:03.562Z,0.1
2018-12-25T06:14:03.184Z,0.2
2018-12-25T06:15:03.787Z,0.2
2018-12-25T06:16:03.292Z,0.2
2018-12-25T06:17:03.593Z,0.2
2018-12-25T06:18:03.362Z,0.2
2018-12-25T06:19:03.787Z,0.1
2018-12-25T06:20:03.342Z,0.2
2018-12-25T06:21:03.061Z,0.2
2018-12-25T06:22:03.590Z,0.1
2018-12-25T06:23:02.892Z,0.2
2018-12-25T06:24:02.983Z,0.2
2018-12-25T06:25:03.397Z,0.1
2018-12-25T06:26:03.172Z,0.2
2018-12-25T06:27:03.341Z,0.2
2018-12-25T06:28:03.233Z,0.1
2018-12-25T06:29:02.840Z,0.1
2018-12-25T06:30:02.830Z,0.2
2018-12-25T06:31:03.295Z,0.2
2018-12-25T06:32:03.586Z,0.2
2018-12-25T06:33:03.159Z,0.2
2018-12-25T06:34:02.985Z,0.2
2018-12-25T06:35:03.013Z,0.2
2018-12-25T06:36:03.120Z,0.2
2018-12-25T06:37:03.644Z,0.1
2018-12-25T06:38:02.963Z,0.1
2018-12-25T06:39:03.985Z,0.1
2018-12-25T06:40:02.284Z,0.1
2018-12-25T06:41:02.807Z,0.1
2018-12-25T06:42:03.585Z,0.1
2018-12-25T06:43:03.440Z,0.1
2018-12-25T06:44:03.103Z,0.1
2018-12-25T06:45:03.286Z,0.1
2018-12-25T06:46:03.136Z,0.1
2018-12-25T06:47:03.619Z,0.2
2018-12-25T06:48:03.105Z,0.1
2018-12-25T06:49:02.908Z,0.2
2018-12-25T06:50:03.573Z,0.2
2018-12-25T06:51:04.408Z,0.1
2018-12-25T06:52:02.980Z,0.2
2018-12-25T06:53:03.306Z,0.2
2018-12-25T06:54:02.981Z,0.2
2018-12-25T06:55:03.475Z,0.2
2018-12-25T06:56:03.633Z,0.2
2018-12-25T06:57:03.542Z,0.2
2018-12-25T06:58:03.277Z,0.2
2018-12-25T06:59:03.244Z,0.2
2018-12-25T07:00:03.006Z,0.2
2018-12-25T07:01:03.244Z,0.2
2018-12-25T07:02:03.302Z,0.2
2018-12-25T07:03:03.511Z,0.2
2018-12-25T07:04:02.983Z,0.2
2018-12-25T07:05:03.461Z,0.2
2018-12-25T07:06:03.576Z,0.2
2018-12-25T07:07:03.733Z,0.2
2018-12-25T07:08:03.598Z,0.2
2018-12-25T07:09:03.119Z,0.2
2018-12-25T07:10:03.320Z,0.2
2018-12-25T07:11:03.374Z,0.2
2018-12-25T07:12:03.650Z,0.3
2018-12-25T07:13:03.256Z,0.2
2018-12-25T07:14:03.432Z,0.2
2018-12-25T07:15:02.950Z,0.2
2018-12-25T07:16:03.611Z,0.2
2018-12-25T07:17:03.139Z,0.3
2018-12-25T07:18:03.506Z,0.3
2018-12-25T07:19:03.050Z,0.3
2018-12-25T07:20:03.389Z,0.3
2018-12-25T07:21:02.840Z,0.3
2018-12-25T07:22:03.192Z,0.3
2018-12-25T07:23:03.460Z,0.3
2018-12-25T07:24:03.363Z,0.2
2018-12-25T07:25:03.062Z,0.3
2018-12-25T07:26:03.563Z,0.3
2018-12-25T07:27:03.093Z,0.3
2018-12-25T07:28:03.343Z,0.3
2018-12-25T07:29:03.007Z,0.3
2018-12-25T07:30:03.603Z,0.3
2018-12-25T07:31:03.188Z,0.3
2018-12-25T07:32:03.710Z,0.3
2018-12-25T07:33:02.995Z,0.3
2018-12-25T07:34:02.888Z,0.3
2018-12-25T07:35:03.889Z,0.3
2018-12-25T07:36:03.381Z,0.3
2018-12-25T07:37:03.505Z,0.3
2018-12-25T07:38:03.509Z,0.3
2018-12-25T07:39:03.013Z,0.3
2018-12-25T07:40:02.934Z,0.3
2018-12-25T07:41:03.815Z,0.3
2018-12-25T07:42:02.834Z,0.3
2018-12-25T07:43:03.388Z,0.3
2018-12-25T07:44:03.109Z,0.3
2018-12-25T07:45:03.720Z,0.3
2018-12-25T07:46:03.174Z,0.3
2018-12-25T07:47:02.844Z,0.3
2018-12-25T07:48:03.650Z,0.3
2018-12-25T07:49:02.942Z,0.3
2018-12-25T07:50:02.880Z,0.3
2018-12-25T07:51:03.509Z,0.3
2018-12-25T07:52:03.551Z,0.3
2018-12-25T07:53:03.534Z,0.4
2018-12-25T07:54:03.121Z,0.4
2018-12-25T07:55:03.063Z,0.4
2018-12-25T07:56:03.213Z,0.4
2018-12-25T07:57:03.226Z,0.4
2018-12-25T07:58:03.451Z,0.4
2018-12-25T07:59:03.088Z,0.4
2018-12-25T08:00:03.391Z,0.4
2018-12-25T08:01:03.173Z,0.4
2018-12-25T08:02:03.400Z,0.4
2018-12-25T08:03:03.795Z,0.4
2018-12-25T08:04:03.510Z,0.4
2018-12-25T08:05:03.371Z,0.5
2018-12-25T08:06:03.308Z,0.5
2018-12-25T08:07:02.981Z,0.5
2018-12-25T08:08:02.926Z,0.5
2018-12-25T08:09:02.906Z,0.5
2018-12-25T08:10:03.753Z,0.5
2018-12-25T08:11:03.289Z,0.6
2018-12-25T08:12:03.403Z,0.7
2018-12-25T08:13:03.458Z,0.8
2018-12-25T08:14:02.996Z,0.8
2018-12-25T08:15:03.725Z,0.8
2018-12-25T08:16:03.809Z,0.8
2018-12-25T08:17:03.581Z,0.8
2018-12-25T08:18:03.401Z,0.8
2018-12-25T08:19:03.438Z,0.8
2018-12-25T08:20:03.688Z,0.8
2018-12-25T08:21:02.887Z,0.8
2018-12-25T08:22:02.870Z,0.8
2018-12-25T08:23:03.063Z,0.8
2018-12-25T08:24:03.495Z,0.9
2018-12-25T08:25:03.299Z,0.8
2018-12-25T08:26:03.185Z,0.8
2018-12-25T08:27:03.249Z,0.8
2018-12-25T08:28:03.090Z,0.8
2018-12-25T08:29:04.484Z,0.8
2018-12-25T08:30:03.268Z,0.8
2018-12-25T08:31:03.473Z,0.8
2018-12-25T08:32:03.206Z,0.9
2018-12-25T08:33:03.675Z,0.9
2018-12-25T08:34:03.180Z,0.9
2018-12-25T08:35:03.615Z,0.9
2018-12-25T08:36:02.829Z,0.9
2018-12-25T08:37:02.926Z,0.9
2018-12-25T08:38:03.098Z,1
2018-12-25T08:39:03.080Z,1
2018-12-25T08:40:04.197Z,1
2018-12-25T08:41:03.418Z,1.1
2018-12-25T08:42:02.948Z,1.1
2018-12-25T08:43:03.422Z,1.1
2018-12-25T08:44:03.108Z,1.1
2018-12-25T08:45:03.350Z,1.1
2018-12-25T08:46:03.786Z,1.1
2018-12-25T08:47:03.624Z,1.1
2018-12-25T08:48:02.951Z,1.1
2018-12-25T08:49:03.080Z,1.1
2018-12-25T08:50:02.913Z,1.1
2018-12-25T08:51:03.549Z,1.1
2018-12-25T08:52:03.512Z,1.2
2018-12-25T08:53:03.446Z,1.1
2018-12-25T08:54:03.169Z,1.1
2018-12-25T08:55:03.464Z,1.1
2018-12-25T08:56:03.264Z,1.2
2018-12-25T08:57:03.833Z,1.3
2018-12-25T08:58:03.053Z,1.2
2018-12-25T08:59:03.030Z,1.2
2018-12-25T09:00:03.610Z,1.2
2018-12-25T09:01:03.089Z,1.2
2018-12-25T09:02:03.056Z,1.2
2018-12-25T09:03:03.350Z,1.1
2018-12-25T09:04:03.753Z,1.2
2018-12-25T09:05:02.843Z,1.2
2018-12-25T09:06:03.872Z,1.2
2018-12-25T09:07:04.601Z,1.2
2018-12-25T09:08:02.965Z,1.2
2018-12-25T09:09:03.403Z,1.2
2018-12-25T09:10:03.804Z,1.2
2018-12-25T09:11:02.953Z,1.2
2018-12-25T09:12:02.815Z,1.2
2018-12-25T09:13:04.974Z,1.2
2018-12-25T09:14:03.831Z,1.2
2018-12-25T09:15:03.217Z,1.2
2018-12-25T09:16:03.364Z,1.2
2018-12-25T09:17:03.167Z,1.2
2018-12-25T09:18:03.308Z,1.2
2018-12-25T09:19:03.721Z,1.2
2018-12-25T09:20:03.704Z,1.3
2018-12-25T09:21:03.329Z,1.3
2018-12-25T09:22:03.699Z,1.2
2018-12-25T09:23:03.777Z,1.2
2018-12-25T09:24:03.270Z,1.3
2018-12-25T09:25:03.830Z,1.3
2018-12-25T09:26:03.735Z,1.3
2018-12-25T09:27:03.354Z,1.3
2018-12-25T09:28:03.402Z,1.3
2018-12-25T09:29:03.354Z,1.3
2018-12-25T09:30:03.855Z,1.3
2018-12-25T09:31:02.772Z,1.3
2018-12-25T09:32:03.234Z,1.3
2018-12-25T09:33:05.647Z,1.3
2018-12-25T09:34:03.453Z,1.3
2018-12-25T09:35:03.277Z,1.3
2018-12-25T09:36:02.893Z,1.3
2018-12-25T09:37:02.965Z,1.3
2018-12-25T09:38:02.815Z,1.3
2018-12-25T09:39:03.669Z,1.4
2018-12-25T09:40:02.886Z,1.4
2018-12-25T09:41:03.263Z,1.3
2018-12-25T09:42:02.786Z,1.4
2018-12-25T09:43:03.091Z,1.4
2018-12-25T09:44:03.659Z,1.4
2018-12-25T09:45:03.274Z,1.3
2018-12-25T09:46:02.999Z,1.3
2018-12-25T09:47:03.164Z,1.3
2018-12-25T09:48:03.334Z,1.4
2018-12-25T09:49:03.181Z,1.4
2018-12-25T09:50:03.759Z,1.4
2018-12-25T09:51:03.768Z,1.4
2018-12-25T09:52:03.580Z,1.4
2018-12-25T09:53:02.924Z,1.4
2018-12-25T09:54:02.920Z,1.4
2018-12-25T09:55:03.190Z,1.3
2018-12-25T09:56:03.578Z,1.4
2018-12-25T09:57:02.899Z,1.3
2018-12-25T09:58:03.544Z,1.3
2018-12-25T09:59:03.310Z,1.3
2018-12-25T10:00:03.277Z,1.3
2018-12-25T10:01:02.779Z,1.3
2018-12-25T10:02:03.287Z,1.2
2018-12-25T10:03:03.635Z,1.3
2018-12-25T10:04:02.823Z,1.4
2018-12-25T10:05:03.261Z,1.4
2018-12-25T10:06:03.529Z,1.4
2018-12-25T10:07:03.074Z,1.5
2018-12-25T10:08:03.835Z,1.4
2018-12-25T10:09:03.506Z,1.5
2018-12-25T10:10:03.039Z,1.5
2018-12-25T10:11:03.633Z,1.5
2018-12-25T10:12:03.039Z,1.4
2018-12-25T10:13:03.617Z,1.4
2018-12-25T10:14:02.936Z,1.4
2018-12-25T10:15:03.832Z,1.5
2018-12-25T10:16:02.797Z,1.5
2018-12-25T10:17:03.380Z,1.5
2018-12-25T10:18:02.760Z,1.5
2018-12-25T10:19:02.864Z,1.5
2018-12-25T10:20:03.187Z,1.4
2018-12-25T10:21:03.095Z,1.4
2018-12-25T10:22:05.404Z,1.4
2018-12-25T10:23:03.140Z,1.5
2018-12-25T10:24:03.623Z,1.4
2018-12-25T10:25:03.421Z,1.4
2018-12-25T10:26:03.771Z,1.5
2018-12-25T10:27:03.245Z,1.5
2018-12-25T10:28:03.526Z,1.5
2018-12-25T10:29:02.802Z,1.4
2018-12-25T10:30:02.990Z,1.4
2018-12-25T10:31:03.177Z,1.5
2018-12-25T10:32:04.890Z,1.5
2018-12-25T10:33:03.499Z,1.5
2018-12-25T10:34:03.396Z,1.6
2018-12-25T10:35:02.987Z,1.5
2018-12-25T10:36:03.499Z,1.5
2018-12-25T10:37:02.764Z,1.6
2018-12-25T10:38:03.186Z,1.6
2018-12-25T10:39:03.100Z,1.6
2018-12-25T10:40:06.651Z,1.6
2018-12-25T10:41:03.112Z,1.6
2018-12-25T10:42:04.062Z,1.6
2018-12-25T10:43:03.292Z,1.6
2018-12-25T10:44:03.223Z,1.6
2018-12-25T10:45:02.770Z,1.6
2018-12-25T10:46:03.677Z,1.6
2018-12-25T10:47:02.675Z,1.6
2018-12-25T10:48:03.183Z,1.6
2018-12-25T10:49:02.977Z,1.6
2018-12-25T10:50:03.401Z,1.6
2018-12-25T10:51:02.827Z,1.6
2018-12-25T10:52:12.116Z,1.6
2018-12-25T10:53:02.823Z,1.6
2018-12-25T10:54:03.081Z,1.6
2018-12-25T10:55:03.746Z,1.6
2018-12-25T10:56:02.958Z,1.6
2018-12-25T10:57:04.103Z,1.6
2018-12-25T10:58:04.768Z,1.6
2018-12-25T10:59:03.816Z,1.6
2018-12-25T11:00:03.416Z,1.6
2018-12-25T11:01:03.205Z,1.6
2018-12-25T11:02:03.861Z,1.6
2018-12-25T11:03:02.886Z,1.6
2018-12-25T11:04:02.961Z,1.6
2018-12-25T11:05:02.968Z,1.6
2018-12-25T11:06:04.358Z,1.6
2018-12-25T11:07:03.108Z,1.6
2018-12-25T11:08:03.507Z,1.6
2018-12-25T11:09:03.740Z,1.5
2018-12-25T11:10:03.771Z,1.6
2018-12-25T11:11:03.348Z,1.6
2018-12-25T11:12:03.481Z,1.6
2018-12-25T11:13:03.562Z,1.6
2018-12-25T11:14:03.554Z,1.6
2018-12-25T11:15:02.973Z,1.6
2018-12-25T11:16:03.410Z,1.6
2018-12-25T11:17:03.148Z,1.6
2018-12-25T11:18:03.186Z,1.6
2018-12-25T11:19:03.138Z,1.6
2018-12-25T11:20:11.906Z,1.6
2018-12-25T11:21:03.228Z,1.6
2018-12-25T11:22:06.083Z,1.6
2018-12-25T11:23:03.084Z,1.7
2018-12-25T11:24:03.192Z,1.7
2018-12-25T11:25:03.622Z,1.7
2018-12-25T11:26:03.257Z,1.7
2018-12-25T11:27:03.316Z,1.7
2018-12-25T11:28:02.857Z,1.7
2018-12-25T11:29:03.167Z,1.6
2018-12-25T11:30:03.244Z,1.7
2018-12-25T11:31:03.251Z,1.7
2018-12-25T11:32:03.021Z,1.7
2018-12-25T11:33:03.031Z,1.7
2018-12-25T11:34:02.950Z,1.7
2018-12-25T11:35:03.694Z,1.7
2018-12-25T11:36:02.857Z,1.7
2018-12-25T11:37:03.474Z,1.7
2018-12-25T11:38:03.220Z,1.7
2018-12-25T11:39:03.456Z,1.7
2018-12-25T11:40:03.824Z,1.7
2018-12-25T11:41:03.265Z,1.7
2018-12-25T11:42:03.200Z,1.7
2018-12-25T11:43:02.934Z,1.7
2018-12-25T11:44:02.824Z,1.8
2018-12-25T11:45:03.579Z,1.8
2018-12-25T11:46:03.436Z,1.8
2018-12-25T11:47:03.428Z,1.8
2018-12-25T11:48:03.259Z,1.8
2018-12-25T11:49:03.061Z,1.8
2018-12-25T11:50:02.961Z,1.8
2018-12-25T11:51:03.001Z,1.7
2018-12-25T11:52:02.861Z,1.8
2018-12-25T11:53:03.900Z,1.8
2018-12-25T11:54:03.370Z,1.8
2018-12-25T11:55:03.153Z,1.8
2018-12-25T11:56:03.119Z,1.8
2018-12-25T11:57:02.903Z,1.8
2018-12-25T11:58:03.038Z,1.8
2018-12-25T11:59:03.611Z,1.8
2018-12-25T12:00:03.148Z,1.8
2018-12-25T12:01:03.759Z,1.8
2018-12-25T12:02:03.426Z,1.8
2018-12-25T12:03:03.033Z,1.8
2018-12-25T12:04:03.349Z,1.8
2018-12-25T12:05:03.860Z,1.8
2018-12-25T12:06:03.384Z,1.8
2018-12-25T12:07:03.150Z,1.8
2018-12-25T12:08:03.206Z,1.8
2018-12-25T12:09:03.144Z,1.8
2018-12-25T12:10:03.574Z,1.8
2018-12-25T12:11:03.285Z,1.8
2018-12-25T12:12:03.458Z,1.8
2018-12-25T12:13:03.241Z,1.8
2018-12-25T12:14:03.146Z,1.8
2018-12-25T12:15:03.391Z,1.8
2018-12-25T12:16:03.774Z,1.8
2018-12-25T12:17:03.478Z,1.8
2018-12-25T12:18:03.696Z,1.8
2018-12-25T12:19:03.729Z,1.8
2018-12-25T12:20:03.382Z,1.8
2018-12-25T12:21:03.094Z,1.8
2018-12-25T12:22:03.214Z,1.8
2018-12-25T12:23:03.779Z,1.9
2018-12-25T12:24:02.952Z,1.8
2018-12-25T12:25:03.508Z,1.8
2018-12-25T12:26:03.567Z,1.8
2018-12-25T12:27:03.120Z,1.9
2018-12-25T12:28:03.421Z,1.9
2018-12-25T12:29:03.118Z,1.9
2018-12-25T12:30:03.624Z,1.8
2018-12-25T12:31:03.087Z,1.9
2018-12-25T12:32:03.362Z,1.8
2018-12-25T12:33:03.016Z,1.8
2018-12-25T12:34:03.097Z,1.8
2018-12-25T12:35:03.321Z,1.8
2018-12-25T12:36:02.910Z,1.8
2018-12-25T12:37:02.932Z,1.8
2018-12-25T12:38:03.889Z,1.8
2018-12-25T12:39:03.221Z,1.8
2018-12-25T12:40:04.025Z,1.9
2018-12-25T12:41:02.931Z,1.9
2018-12-25T12:42:03.281Z,1.9
2018-12-25T12:43:03.058Z,1.9
2018-12-25T12:44:03.599Z,1.9
2018-12-25T12:45:04.095Z,1.9
2018-12-25T12:46:03.628Z,1.9
2018-12-25T12:47:03.115Z,1.9
2018-12-25T12:48:03.545Z,1.9
2018-12-25T12:49:03.523Z,1.9
2018-12-25T12:50:03.229Z,1.9
2018-12-25T12:51:03.510Z,1.9
2018-12-25T12:52:03.106Z,1.9
2018-12-25T12:53:03.490Z,1.9
2018-12-25T12:54:03.695Z,1.9
2018-12-25T12:55:03.321Z,1.9
2018-12-25T12:56:03.127Z,1.9
2018-12-25T12:57:03.350Z,1.9
2018-12-25T12:58:03.171Z,1.9
2018-12-25T12:59:03.225Z,1.9
2018-12-25T13:00:03.011Z,2
2018-12-25T13:01:03.308Z,1.9
2018-12-25T13:02:03.555Z,1.9
2018-12-25T13:03:03.882Z,1.9
2018-12-25T13:04:03.546Z,1.9
2018-12-25T13:05:03.617Z,1.9
2018-12-25T13:06:03.616Z,1.9
2018-12-25T13:07:03.636Z,1.9
2018-12-25T13:08:03.074Z,1.9
2018-12-25T13:09:03.545Z,1.9
2018-12-25T13:10:03.229Z,1.9
2018-12-25T13:11:03.230Z,1.9
2018-12-25T13:12:03.448Z,1.9
2018-12-25T13:13:03.736Z,1.9
2018-12-25T13:14:03.310Z,1.9
2018-12-25T13:15:03.468Z,1.9
2018-12-25T13:16:02.886Z,1.9
2018-12-25T13:17:03.597Z,1.9
2018-12-25T13:18:03.220Z,1.9
2018-12-25T13:19:02.895Z,1.9
2018-12-25T13:20:03.217Z,1.9
2018-12-25T13:21:04.499Z,1.9
2018-12-25T13:22:03.408Z,1.9
2018-12-25T13:23:03.637Z,2
2018-12-25T13:24:02.807Z,1.9
2018-12-25T13:25:03.002Z,1.9
2018-12-25T13:26:03.397Z,1.9
2018-12-25T13:27:03.786Z,1.9
2018-12-25T13:28:03.506Z,1.9
2018-12-25T13:29:03.036Z,1.9
2018-12-25T13:30:02.960Z,1.9
2018-12-25T13:31:03.078Z,1.9
2018-12-25T13:32:03.023Z,1.9
2018-12-25T13:33:03.565Z,1.9
2018-12-25T13:34:03.313Z,1.9
2018-12-25T13:35:02.865Z,1.9
2018-12-25T13:36:03.533Z,1.9
2018-12-25T13:37:03.021Z,1.9
2018-12-25T13:38:03.290Z,1.9
2018-12-25T13:39:03.144Z,1.9
2018-12-25T13:40:03.308Z,1.9
2018-12-25T13:41:03.990Z,1.9
2018-12-25T13:42:03.326Z,1.9
2018-12-25T13:43:02.780Z,1.9
2018-12-25T13:44:03.120Z,1.9
2018-12-25T13:45:03.719Z,1.9
2018-12-25T13:46:03.580Z,1.9
2018-12-25T13:47:03.707Z,1.9
2018-12-25T13:48:03.117Z,1.9
2018-12-25T13:49:03.836Z,1.9